sensor_id;sensor_type;location;lat;lon;timestamp;P1;durP1;ratioP1;P2;durP2;ratioP2
70153;SDS011;57519;51.494;-2.626;2023-03-23T00:01:58;10.40;;;3.60;;
70153;SDS011;57519;51.494;-2.626;2023-03-23T00:04:24;18.98;;;4.85;;
70153;SDS011;57519;51.494;-2.626;2023-03-23T00:06:51;12.15;;;4.95;;
70153;SDS011;57519;51.494;-2.626;2023-03-23T00:09:16;16.20;;;4.67;;
70153;SDS011;57519;51.494;-2.626;2023-03-23T00:11:42;14.60;;;4.77;;
70153;SDS011;57519;51.494;-2.626;2023-03-23T00:14:08;17.90;;;5.30;;
70153;SDS011;57519;51.494;-2.626;2023-03-23T00:16:38;14.98;;;5.30;;
70153;SDS011;57519;51.494;-2.626;2023-03-23T00:19:07;16.57;;;4.87;;
70153;SDS011;57519;51.494;-2.626;2023-03-23T00:21:35;22.85;;;6.13;;
70153;SDS011;57519;51.494;-2.626;2023-03-23T00:26:35;11.90;;;4.30;;
70153;SDS011;57519;51.494;-2.626;2023-03-23T00:29:05;17.52;;;5.38;;
70153;SDS011;57519;51.494;-2.626;2023-03-23T00:31:32;15.10;;;5.80;;
70153;SDS011;57519;51.494;-2.626;2023-03-23T00:34:00;12.68;;;4.53;;
70153;SDS011;57519;51.494;-2.626;2023-03-23T00:36:29;14.15;;;4.97;;
70153;SDS011;57519;51.494;-2.626;2023-03-23T00:38:55;18.15;;;5.50;;
70153;SDS011;57519;51.494;-2.626;2023-03-23T00:41:26;21.67;;;5.50;;
70153;SDS011;57519;51.494;-2.626;2023-03-23T00:43:53;9.32;;;4.43;;
70153;SDS011;57519;51.494;-2.626;2023-03-23T00:46:21;21.52;;;6.25;;
70153;SDS011;57519;51.494;-2.626;2023-03-23T00:48:47;13.45;;;5.47;;
70153;SDS011;57519;51.494;-2.626;2023-03-23T00:51:13;18.70;;;6.27;;
70153;SDS011;57519;51.494;-2.626;2023-03-23T00:53:39;11.85;;;4.93;;
70153;SDS011;57519;51.494;-2.626;2023-03-23T00:56:06;21.98;;;6.25;;
70153;SDS011;57519;51.494;-2.626;2023-03-23T00:58:32;19.48;;;5.93;;
70153;SDS011;57519;51.494;-2.626;2023-03-23T01:00:57;13.97;;;3.93;;
70153;SDS011;57519;51.494;-2.626;2023-03-23T01:03:23;18.53;;;5.93;;
70153;SDS011;57519;51.494;-2.626;2023-03-23T01:05:50;17.60;;;4.65;;
70153;SDS011;57519;51.494;-2.626;2023-03-23T01:08:17;12.55;;;4.32;;
70153;SDS011;57519;51.494;-2.626;2023-03-23T01:10:44;10.23;;;4.37;;
70153;SDS011;57519;51.494;-2.626;2023-03-23T01:13:10;13.60;;;5.25;;
70153;SDS011;57519;51.494;-2.626;2023-03-23T01:15:36;13.57;;;4.78;;
70153;SDS011;57519;51.494;-2.626;2023-03-23T01:18:03;11.07;;;4.27;;
70153;SDS011;57519;51.494;-2.626;2023-03-23T01:20:30;18.48;;;5.90;;
70153;SDS011;57519;51.494;-2.626;2023-03-23T01:22:57;14.02;;;5.15;;
70153;SDS011;57519;51.494;-2.626;2023-03-23T01:25:29;12.05;;;5.28;;
70153;SDS011;57519;51.494;-2.626;2023-03-23T01:27:56;18.67;;;5.80;;
70153;SDS011;57519;51.494;-2.626;2023-03-23T01:30:22;13.40;;;5.40;;
70153;SDS011;57519;51.494;-2.626;2023-03-23T01:32:48;22.00;;;5.47;;
70153;SDS011;57519;51.494;-2.626;2023-03-23T01:35:14;17.95;;;5.45;;
70153;SDS011;57519;51.494;-2.626;2023-03-23T01:37:40;14.68;;;5.60;;
70153;SDS011;57519;51.494;-2.626;2023-03-23T01:40:09;24.77;;;5.87;;
70153;SDS011;57519;51.494;-2.626;2023-03-23T01:42:36;21.88;;;6.03;;
70153;SDS011;57519;51.494;-2.626;2023-03-23T01:45:25;15.15;;;5.28;;
70153;SDS011;57519;51.494;-2.626;2023-03-23T01:47:53;13.07;;;4.63;;
70153;SDS011;57519;51.494;-2.626;2023-03-23T01:50:28;18.05;;;5.53;;
70153;SDS011;57519;51.494;-2.626;2023-03-23T01:52:59;13.60;;;5.57;;
70153;SDS011;57519;51.494;-2.626;2023-03-23T01:55:27;19.13;;;6.03;;
70153;SDS011;57519;51.494;-2.626;2023-03-23T01:57:56;17.63;;;5.20;;
70153;SDS011;57519;51.494;-2.626;2023-03-23T02:00:26;13.93;;;4.22;;
70153;SDS011;57519;51.494;-2.626;2023-03-23T02:02:52;9.07;;;4.38;;
70153;SDS011;57519;51.494;-2.626;2023-03-23T02:05:22;13.77;;;5.03;;
70153;SDS011;57519;51.494;-2.626;2023-03-23T02:07:53;12.43;;;4.90;;
70153;SDS011;57519;51.494;-2.626;2023-03-23T02:10:24;13.13;;;4.65;;
70153;SDS011;57519;51.494;-2.626;2023-03-23T02:12:49;20.70;;;6.10;;
70153;SDS011;57519;51.494;-2.626;2023-03-23T02:15:15;14.75;;;4.45;;
70153;SDS011;57519;51.494;-2.626;2023-03-23T02:18:04;17.02;;;5.32;;
70153;SDS011;57519;51.494;-2.626;2023-03-23T02:26:34;9.52;;;4.25;;
70153;SDS011;57519;51.494;-2.626;2023-03-23T02:34:31;20.57;;;5.17;;
70153;SDS011;57519;51.494;-2.626;2023-03-23T02:37:24;15.90;;;5.00;;
70153;SDS011;57519;51.494;-2.626;2023-03-23T02:39:56;13.48;;;4.90;;
70153;SDS011;57519;51.494;-2.626;2023-03-23T02:42:38;17.73;;;5.43;;
70153;SDS011;57519;51.494;-2.626;2023-03-23T02:45:08;14.25;;;4.43;;
70153;SDS011;57519;51.494;-2.626;2023-03-23T02:47:37;15.80;;;5.10;;
70153;SDS011;57519;51.494;-2.626;2023-03-23T02:50:04;13.98;;;5.15;;
70153;SDS011;57519;51.494;-2.626;2023-03-23T02:52:32;15.93;;;5.95;;
70153;SDS011;57519;51.494;-2.626;2023-03-23T02:54:59;17.42;;;5.88;;
70153;SDS011;57519;51.494;-2.626;2023-03-23T02:57:27;12.65;;;5.03;;
70153;SDS011;57519;51.494;-2.626;2023-03-23T02:59:53;12.57;;;5.13;;
70153;SDS011;57519;51.494;-2.626;2023-03-23T03:02:32;10.25;;;4.35;;
70153;SDS011;57519;51.494;-2.626;2023-03-23T03:07:45;18.05;;;5.53;;
70153;SDS011;57519;51.494;-2.626;2023-03-23T03:10:16;16.60;;;4.82;;
70153;SDS011;57519;51.494;-2.626;2023-03-23T03:12:53;17.70;;;6.63;;
70153;SDS011;57519;51.494;-2.626;2023-03-23T03:15:28;9.40;;;4.63;;
70153;SDS011;57519;51.494;-2.626;2023-03-23T03:20:30;11.95;;;4.55;;
70153;SDS011;57519;51.494;-2.626;2023-03-23T03:22:57;12.32;;;4.93;;
70153;SDS011;57519;51.494;-2.626;2023-03-23T03:25:24;13.17;;;5.20;;
70153;SDS011;57519;51.494;-2.626;2023-03-23T03:27:52;21.40;;;6.35;;
70153;SDS011;57519;51.494;-2.626;2023-03-23T03:30:21;13.73;;;4.40;;
70153;SDS011;57519;51.494;-2.626;2023-03-23T03:32:52;16.63;;;5.85;;
70153;SDS011;57519;51.494;-2.626;2023-03-23T03:35:22;13.63;;;5.18;;
70153;SDS011;57519;51.494;-2.626;2023-03-23T03:37:48;15.40;;;5.43;;
70153;SDS011;57519;51.494;-2.626;2023-03-23T03:40:18;19.40;;;5.20;;
70153;SDS011;57519;51.494;-2.626;2023-03-23T03:42:46;14.95;;;5.25;;
70153;SDS011;57519;51.494;-2.626;2023-03-23T03:45:13;13.32;;;4.95;;
70153;SDS011;57519;51.494;-2.626;2023-03-23T03:47:41;14.15;;;5.18;;
70153;SDS011;57519;51.494;-2.626;2023-03-23T03:50:07;14.03;;;4.67;;
70153;SDS011;57519;51.494;-2.626;2023-03-23T03:52:33;7.50;;;4.05;;
70153;SDS011;57519;51.494;-2.626;2023-03-23T03:55:00;10.30;;;4.35;;
70153;SDS011;57519;51.494;-2.626;2023-03-23T03:57:25;11.37;;;5.37;;
70153;SDS011;57519;51.494;-2.626;2023-03-23T03:59:51;11.20;;;4.63;;
70153;SDS011;57519;51.494;-2.626;2023-03-23T04:02:18;10.65;;;5.03;;
70153;SDS011;57519;51.494;-2.626;2023-03-23T04:04:48;12.50;;;4.17;;
70153;SDS011;57519;51.494;-2.626;2023-03-23T04:07:15;10.88;;;3.97;;
70153;SDS011;57519;51.494;-2.626;2023-03-23T04:09:41;10.40;;;4.47;;
70153;SDS011;57519;51.494;-2.626;2023-03-23T04:12:08;15.75;;;5.10;;
70153;SDS011;57519;51.494;-2.626;2023-03-23T04:14:34;16.80;;;5.83;;
70153;SDS011;57519;51.494;-2.626;2023-03-23T04:16:59;13.27;;;4.53;;
70153;SDS011;57519;51.494;-2.626;2023-03-23T04:19:25;20.40;;;5.07;;
70153;SDS011;57519;51.494;-2.626;2023-03-23T04:21:53;20.25;;;4.72;;
70153;SDS011;57519;51.494;-2.626;2023-03-23T04:24:20;16.65;;;5.07;;
70153;SDS011;57519;51.494;-2.626;2023-03-23T04:26:49;11.63;;;4.80;;
70153;SDS011;57519;51.494;-2.626;2023-03-23T04:29:17;18.17;;;5.57;;
70153;SDS011;57519;51.494;-2.626;2023-03-23T04:31:44;16.90;;;5.55;;
70153;SDS011;57519;51.494;-2.626;2023-03-23T04:34:10;19.15;;;4.13;;
70153;SDS011;57519;51.494;-2.626;2023-03-23T04:36:38;11.98;;;4.90;;
70153;SDS011;57519;51.494;-2.626;2023-03-23T04:39:05;16.47;;;5.43;;
70153;SDS011;57519;51.494;-2.626;2023-03-23T04:41:34;9.75;;;4.50;;
70153;SDS011;57519;51.494;-2.626;2023-03-23T04:44:03;11.57;;;4.78;;
70153;SDS011;57519;51.494;-2.626;2023-03-23T04:46:30;13.20;;;4.40;;
70153;SDS011;57519;51.494;-2.626;2023-03-23T04:48:56;12.73;;;4.73;;
70153;SDS011;57519;51.494;-2.626;2023-03-23T04:51:25;16.92;;;5.32;;
70153;SDS011;57519;51.494;-2.626;2023-03-23T04:53:52;14.43;;;4.38;;
70153;SDS011;57519;51.494;-2.626;2023-03-23T04:56:18;12.90;;;5.28;;
70153;SDS011;57519;51.494;-2.626;2023-03-23T04:58:44;24.23;;;6.27;;
70153;SDS011;57519;51.494;-2.626;2023-03-23T05:01:11;11.43;;;4.28;;
70153;SDS011;57519;51.494;-2.626;2023-03-23T05:03:46;13.98;;;4.18;;
70153;SDS011;57519;51.494;-2.626;2023-03-23T05:06:11;19.23;;;5.63;;
70153;SDS011;57519;51.494;-2.626;2023-03-23T05:08:37;16.20;;;5.50;;
70153;SDS011;57519;51.494;-2.626;2023-03-23T05:11:04;17.23;;;5.93;;
70153;SDS011;57519;51.494;-2.626;2023-03-23T05:13:30;18.70;;;6.83;;
70153;SDS011;57519;51.494;-2.626;2023-03-23T05:15:56;15.82;;;5.90;;
70153;SDS011;57519;51.494;-2.626;2023-03-23T05:18:22;15.85;;;4.93;;
70153;SDS011;57519;51.494;-2.626;2023-03-23T05:20:48;18.17;;;6.33;;
70153;SDS011;57519;51.494;-2.626;2023-03-23T05:23:14;21.10;;;5.57;;
70153;SDS011;57519;51.494;-2.626;2023-03-23T05:25:39;17.43;;;5.47;;
70153;SDS011;57519;51.494;-2.626;2023-03-23T05:28:09;23.33;;;7.45;;
70153;SDS011;57519;51.494;-2.626;2023-03-23T05:30:36;14.55;;;5.90;;
70153;SDS011;57519;51.494;-2.626;2023-03-23T05:33:03;13.93;;;4.90;;
70153;SDS011;57519;51.494;-2.626;2023-03-23T05:35:28;18.73;;;5.73;;
70153;SDS011;57519;51.494;-2.626;2023-03-23T05:37:54;15.98;;;4.88;;
70153;SDS011;57519;51.494;-2.626;2023-03-23T05:40:21;22.30;;;6.50;;
70153;SDS011;57519;51.494;-2.626;2023-03-23T05:42:47;24.98;;;5.80;;
70153;SDS011;57519;51.494;-2.626;2023-03-23T05:45:13;19.95;;;5.68;;
70153;SDS011;57519;51.494;-2.626;2023-03-23T05:47:39;17.60;;;4.90;;
70153;SDS011;57519;51.494;-2.626;2023-03-23T05:50:05;18.77;;;5.70;;
70153;SDS011;57519;51.494;-2.626;2023-03-23T05:52:37;17.08;;;5.72;;
70153;SDS011;57519;51.494;-2.626;2023-03-23T05:55:07;21.92;;;5.68;;
70153;SDS011;57519;51.494;-2.626;2023-03-23T05:57:37;13.07;;;4.93;;
70153;SDS011;57519;51.494;-2.626;2023-03-23T06:00:04;23.90;;;4.73;;
70153;SDS011;57519;51.494;-2.626;2023-03-23T06:02:43;13.23;;;4.50;;
70153;SDS011;57519;51.494;-2.626;2023-03-23T06:05:10;12.52;;;5.13;;
70153;SDS011;57519;51.494;-2.626;2023-03-23T06:07:36;12.03;;;5.53;;
70153;SDS011;57519;51.494;-2.626;2023-03-23T06:10:03;20.90;;;5.20;;
70153;SDS011;57519;51.494;-2.626;2023-03-23T06:12:31;20.58;;;5.20;;
70153;SDS011;57519;51.494;-2.626;2023-03-23T06:14:57;13.93;;;5.87;;
70153;SDS011;57519;51.494;-2.626;2023-03-23T06:17:23;13.82;;;4.88;;
70153;SDS011;57519;51.494;-2.626;2023-03-23T06:19:48;26.13;;;7.03;;
70153;SDS011;57519;51.494;-2.626;2023-03-23T06:22:16;24.27;;;6.30;;
70153;SDS011;57519;51.494;-2.626;2023-03-23T06:24:42;17.83;;;5.40;;
70153;SDS011;57519;51.494;-2.626;2023-03-23T06:27:08;20.70;;;6.35;;
70153;SDS011;57519;51.494;-2.626;2023-03-23T06:29:34;16.43;;;5.60;;
70153;SDS011;57519;51.494;-2.626;2023-03-23T06:32:00;17.73;;;6.20;;
70153;SDS011;57519;51.494;-2.626;2023-03-23T06:34:28;16.98;;;5.82;;
70153;SDS011;57519;51.494;-2.626;2023-03-23T06:36:55;19.63;;;5.43;;
70153;SDS011;57519;51.494;-2.626;2023-03-23T06:39:21;10.70;;;4.85;;
70153;SDS011;57519;51.494;-2.626;2023-03-23T06:41:47;21.10;;;6.18;;
70153;SDS011;57519;51.494;-2.626;2023-03-23T06:44:13;15.80;;;4.57;;
70153;SDS011;57519;51.494;-2.626;2023-03-23T06:46:39;13.77;;;5.03;;
70153;SDS011;57519;51.494;-2.626;2023-03-23T06:49:08;14.45;;;5.70;;
70153;SDS011;57519;51.494;-2.626;2023-03-23T06:51:34;14.37;;;5.23;;
70153;SDS011;57519;51.494;-2.626;2023-03-23T06:54:01;21.67;;;5.55;;
70153;SDS011;57519;51.494;-2.626;2023-03-23T06:56:27;19.40;;;5.72;;
70153;SDS011;57519;51.494;-2.626;2023-03-23T06:58:53;122.50;;;84.60;;
70153;SDS011;57519;51.494;-2.626;2023-03-23T07:01:18;116.65;;;86.03;;
70153;SDS011;57519;51.494;-2.626;2023-03-23T07:03:44;122.07;;;87.55;;
70153;SDS011;57519;51.494;-2.626;2023-03-23T07:06:11;115.27;;;84.27;;
70153;SDS011;57519;51.494;-2.626;2023-03-23T07:08:37;111.90;;;80.53;;
70153;SDS011;57519;51.494;-2.626;2023-03-23T07:11:03;97.90;;;74.32;;
70153;SDS011;57519;51.494;-2.626;2023-03-23T07:13:28;95.33;;;72.10;;
70153;SDS011;57519;51.494;-2.626;2023-03-23T07:15:54;100.07;;;73.97;;
70153;SDS011;57519;51.494;-2.626;2023-03-23T07:18:31;100.50;;;71.25;;
70153;SDS011;57519;51.494;-2.626;2023-03-23T07:20:58;98.78;;;68.97;;
70153;SDS011;57519;51.494;-2.626;2023-03-23T07:23:24;84.00;;;64.40;;
70153;SDS011;57519;51.494;-2.626;2023-03-23T07:25:49;79.75;;;59.28;;
70153;SDS011;57519;51.494;-2.626;2023-03-23T07:28:16;66.10;;;55.47;;
70153;SDS011;57519;51.494;-2.626;2023-03-23T07:30:44;78.68;;;58.70;;
70153;SDS011;57519;51.494;-2.626;2023-03-23T07:33:10;71.00;;;57.03;;
70153;SDS011;57519;51.494;-2.626;2023-03-23T07:35:36;70.22;;;57.38;;
70153;SDS011;57519;51.494;-2.626;2023-03-23T07:38:02;78.15;;;55.97;;
70153;SDS011;57519;51.494;-2.626;2023-03-23T07:40:29;71.78;;;55.30;;
70153;SDS011;57519;51.494;-2.626;2023-03-23T07:42:58;68.43;;;56.47;;
70153;SDS011;57519;51.494;-2.626;2023-03-23T07:45:24;76.65;;;56.97;;
70153;SDS011;57519;51.494;-2.626;2023-03-23T07:47:50;75.03;;;57.55;;
70153;SDS011;57519;51.494;-2.626;2023-03-23T07:50:16;71.70;;;55.63;;
70153;SDS011;57519;51.494;-2.626;2023-03-23T07:52:42;75.53;;;55.67;;
70153;SDS011;57519;51.494;-2.626;2023-03-23T07:55:08;72.28;;;53.70;;
70153;SDS011;57519;51.494;-2.626;2023-03-23T07:57:46;67.10;;;53.03;;
70153;SDS011;57519;51.494;-2.626;2023-03-23T08:00:13;67.78;;;52.38;;
70153;SDS011;57519;51.494;-2.626;2023-03-23T08:02:44;65.35;;;52.80;;
70153;SDS011;57519;51.494;-2.626;2023-03-23T08:05:18;61.28;;;51.78;;
70153;SDS011;57519;51.494;-2.626;2023-03-23T08:07:44;67.80;;;54.55;;
70153;SDS011;57519;51.494;-2.626;2023-03-23T08:10:10;72.40;;;53.37;;
70153;SDS011;57519;51.494;-2.626;2023-03-23T08:12:39;61.08;;;51.60;;
70153;SDS011;57519;51.494;-2.626;2023-03-23T08:15:06;66.82;;;51.35;;
70153;SDS011;57519;51.494;-2.626;2023-03-23T08:17:34;54.60;;;46.50;;
70153;SDS011;57519;51.494;-2.626;2023-03-23T08:20:00;63.50;;;52.92;;
70153;SDS011;57519;51.494;-2.626;2023-03-23T08:22:26;84.97;;;58.57;;
70153;SDS011;57519;51.494;-2.626;2023-03-23T08:24:54;59.72;;;49.15;;
70153;SDS011;57519;51.494;-2.626;2023-03-23T08:27:20;59.45;;;49.53;;
70153;SDS011;57519;51.494;-2.626;2023-03-23T08:29:47;60.08;;;47.30;;
70153;SDS011;57519;51.494;-2.626;2023-03-23T08:32:13;54.37;;;45.10;;
70153;SDS011;57519;51.494;-2.626;2023-03-23T08:34:39;63.97;;;47.40;;
70153;SDS011;57519;51.494;-2.626;2023-03-23T08:37:06;49.45;;;44.08;;
70153;SDS011;57519;51.494;-2.626;2023-03-23T08:39:32;49.80;;;44.67;;
70153;SDS011;57519;51.494;-2.626;2023-03-23T08:41:58;49.65;;;44.47;;
70153;SDS011;57519;51.494;-2.626;2023-03-23T08:44:24;47.73;;;42.60;;
70153;SDS011;57519;51.494;-2.626;2023-03-23T08:46:50;53.45;;;39.83;;
70153;SDS011;57519;51.494;-2.626;2023-03-23T08:49:22;52.95;;;40.42;;
70153;SDS011;57519;51.494;-2.626;2023-03-23T08:51:49;50.00;;;42.75;;
70153;SDS011;57519;51.494;-2.626;2023-03-23T08:54:14;56.43;;;44.83;;
70153;SDS011;57519;51.494;-2.626;2023-03-23T08:56:42;40.00;;;35.78;;
70153;SDS011;57519;51.494;-2.626;2023-03-23T08:59:07;38.63;;;34.33;;
70153;SDS011;57519;51.494;-2.626;2023-03-23T09:01:33;40.00;;;35.08;;
70153;SDS011;57519;51.494;-2.626;2023-03-23T09:03:59;52.17;;;40.17;;
70153;SDS011;57519;51.494;-2.626;2023-03-23T09:06:24;35.37;;;29.70;;
70153;SDS011;57519;51.494;-2.626;2023-03-23T09:08:50;37.67;;;33.83;;
70153;SDS011;57519;51.494;-2.626;2023-03-23T09:11:16;45.95;;;38.20;;
70153;SDS011;57519;51.494;-2.626;2023-03-23T09:13:42;45.10;;;40.17;;
70153;SDS011;57519;51.494;-2.626;2023-03-23T09:16:08;40.97;;;36.63;;
70153;SDS011;57519;51.494;-2.626;2023-03-23T09:18:34;42.35;;;34.05;;
70153;SDS011;57519;51.494;-2.626;2023-03-23T09:21:00;49.47;;;38.23;;
70153;SDS011;57519;51.494;-2.626;2023-03-23T09:23:26;47.45;;;36.47;;
70153;SDS011;57519;51.494;-2.626;2023-03-23T09:25:52;32.95;;;26.00;;
70153;SDS011;57519;51.494;-2.626;2023-03-23T09:28:19;23.65;;;15.18;;
70153;SDS011;57519;51.494;-2.626;2023-03-23T09:30:44;25.70;;;21.80;;
70153;SDS011;57519;51.494;-2.626;2023-03-23T09:33:12;25.67;;;16.17;;
70153;SDS011;57519;51.494;-2.626;2023-03-23T09:35:38;37.25;;;33.17;;
70153;SDS011;57519;51.494;-2.626;2023-03-23T09:38:08;31.75;;;21.27;;
70153;SDS011;57519;51.494;-2.626;2023-03-23T09:46:24;37.07;;;29.20;;
70153;SDS011;57519;51.494;-2.626;2023-03-23T09:49:05;40.17;;;23.48;;
70153;SDS011;57519;51.494;-2.626;2023-03-23T09:51:45;25.08;;;21.23;;
70153;SDS011;57519;51.494;-2.626;2023-03-23T09:54:28;25.15;;;12.90;;
70153;SDS011;57519;51.494;-2.626;2023-03-23T09:56:57;38.55;;;27.67;;
70153;SDS011;57519;51.494;-2.626;2023-03-23T09:59:27;20.77;;;11.50;;
70153;SDS011;57519;51.494;-2.626;2023-03-23T10:02:21;27.50;;;15.88;;
70153;SDS011;57519;51.494;-2.626;2023-03-23T10:04:54;36.00;;;26.42;;
70153;SDS011;57519;51.494;-2.626;2023-03-23T10:07:25;23.38;;;18.58;;
70153;SDS011;57519;51.494;-2.626;2023-03-23T10:09:53;28.38;;;14.50;;
70153;SDS011;57519;51.494;-2.626;2023-03-23T10:12:36;24.00;;;21.80;;
70153;SDS011;57519;51.494;-2.626;2023-03-23T10:15:41;44.40;;;30.02;;
70153;SDS011;57519;51.494;-2.626;2023-03-23T10:18:11;39.15;;;27.10;;
70153;SDS011;57519;51.494;-2.626;2023-03-23T10:23:20;34.03;;;21.42;;
70153;SDS011;57519;51.494;-2.626;2023-03-23T10:28:37;36.55;;;28.17;;
70153;SDS011;57519;51.494;-2.626;2023-03-23T10:31:10;28.40;;;18.30;;
70153;SDS011;57519;51.494;-2.626;2023-03-23T10:34:01;31.73;;;26.70;;
70153;SDS011;57519;51.494;-2.626;2023-03-23T10:36:32;18.20;;;12.23;;
70153;SDS011;57519;51.494;-2.626;2023-03-23T10:41:59;27.58;;;24.83;;
70153;SDS011;57519;51.494;-2.626;2023-03-23T10:44:32;25.40;;;22.03;;
70153;SDS011;57519;51.494;-2.626;2023-03-23T10:47:07;28.10;;;24.90;;
70153;SDS011;57519;51.494;-2.626;2023-03-23T10:49:38;32.70;;;25.60;;
70153;SDS011;57519;51.494;-2.626;2023-03-23T10:52:13;42.22;;;28.73;;
70153;SDS011;57519;51.494;-2.626;2023-03-23T10:55:08;39.85;;;35.65;;
70153;SDS011;57519;51.494;-2.626;2023-03-23T10:57:36;30.93;;;27.97;;
70153;SDS011;57519;51.494;-2.626;2023-03-23T11:02:59;27.88;;;18.05;;
70153;SDS011;57519;51.494;-2.626;2023-03-23T11:05:26;16.65;;;6.95;;
70153;SDS011;57519;51.494;-2.626;2023-03-23T11:07:59;20.67;;;15.13;;
70153;SDS011;57519;51.494;-2.626;2023-03-23T11:10:28;21.60;;;10.60;;
70153;SDS011;57519;51.494;-2.626;2023-03-23T11:13:01;25.35;;;15.27;;
70153;SDS011;57519;51.494;-2.626;2023-03-23T11:15:39;24.58;;;21.55;;
70153;SDS011;57519;51.494;-2.626;2023-03-23T11:18:09;32.90;;;20.73;;
70153;SDS011;57519;51.494;-2.626;2023-03-23T11:20:39;31.35;;;20.92;;
70153;SDS011;57519;51.494;-2.626;2023-03-23T11:23:21;21.23;;;13.10;;
70153;SDS011;57519;51.494;-2.626;2023-03-23T11:25:53;29.35;;;21.90;;
70153;SDS011;57519;51.494;-2.626;2023-03-23T11:28:25;24.33;;;21.00;;
70153;SDS011;57519;51.494;-2.626;2023-03-23T11:30:53;37.75;;;16.20;;
70153;SDS011;57519;51.494;-2.626;2023-03-23T11:33:21;25.20;;;18.35;;
70153;SDS011;57519;51.494;-2.626;2023-03-23T11:35:50;22.17;;;12.33;;
70153;SDS011;57519;51.494;-2.626;2023-03-23T11:38:19;21.85;;;13.50;;
70153;SDS011;57519;51.494;-2.626;2023-03-23T11:40:48;19.25;;;6.10;;
70153;SDS011;57519;51.494;-2.626;2023-03-23T11:43:19;18.98;;;6.47;;
70153;SDS011;57519;51.494;-2.626;2023-03-23T11:58:55;12.50;;;5.47;;
70153;SDS011;57519;51.494;-2.626;2023-03-23T12:21:05;25.43;;;10.97;;
70153;SDS011;57519;51.494;-2.626;2023-03-23T12:28:53;24.63;;;9.83;;
70153;SDS011;57519;51.494;-2.626;2023-03-23T12:37:43;13.52;;;8.45;;
70153;SDS011;57519;51.494;-2.626;2023-03-23T12:43:44;24.83;;;17.23;;
70153;SDS011;57519;51.494;-2.626;2023-03-23T12:49:05;27.42;;;9.35;;
70153;SDS011;57519;51.494;-2.626;2023-03-23T12:51:40;25.08;;;8.25;;
70153;SDS011;57519;51.494;-2.626;2023-03-23T12:57:02;21.90;;;7.50;;
70153;SDS011;57519;51.494;-2.626;2023-03-23T12:59:36;12.63;;;5.88;;
70153;SDS011;57519;51.494;-2.626;2023-03-23T13:02:14;20.05;;;6.78;;
70153;SDS011;57519;51.494;-2.626;2023-03-23T13:04:47;22.40;;;6.57;;
70153;SDS011;57519;51.494;-2.626;2023-03-23T13:07:30;19.30;;;6.57;;
70153;SDS011;57519;51.494;-2.626;2023-03-23T13:10:02;14.32;;;6.57;;
70153;SDS011;57519;51.494;-2.626;2023-03-23T13:12:38;17.80;;;6.40;;
70153;SDS011;57519;51.494;-2.626;2023-03-23T13:15:15;14.60;;;6.18;;
70153;SDS011;57519;51.494;-2.626;2023-03-23T13:20:37;20.20;;;6.27;;
70153;SDS011;57519;51.494;-2.626;2023-03-23T13:23:18;18.58;;;5.90;;
70153;SDS011;57519;51.494;-2.626;2023-03-23T13:28:25;24.00;;;7.53;;
70153;SDS011;57519;51.494;-2.626;2023-03-23T13:30:57;18.45;;;6.57;;
70153;SDS011;57519;51.494;-2.626;2023-03-23T13:33:37;19.90;;;6.60;;
70153;SDS011;57519;51.494;-2.626;2023-03-23T13:36:09;22.80;;;7.53;;
70153;SDS011;57519;51.494;-2.626;2023-03-23T13:38:37;17.38;;;6.55;;
70153;SDS011;57519;51.494;-2.626;2023-03-23T13:41:10;20.65;;;6.97;;
70153;SDS011;57519;51.494;-2.626;2023-03-23T13:43:38;16.10;;;6.17;;
70153;SDS011;57519;51.494;-2.626;2023-03-23T13:46:28;21.02;;;6.18;;
70153;SDS011;57519;51.494;-2.626;2023-03-23T13:56:41;16.93;;;6.07;;
70153;SDS011;57519;51.494;-2.626;2023-03-23T13:59:27;22.83;;;8.70;;
70153;SDS011;57519;51.494;-2.626;2023-03-23T14:01:54;25.25;;;8.15;;
70153;SDS011;57519;51.494;-2.626;2023-03-23T14:04:20;33.88;;;11.20;;
70153;SDS011;57519;51.494;-2.626;2023-03-23T14:06:49;33.58;;;9.05;;
70153;SDS011;57519;51.494;-2.626;2023-03-23T14:09:17;29.60;;;9.18;;
70153;SDS011;57519;51.494;-2.626;2023-03-23T14:11:56;21.50;;;6.93;;
70153;SDS011;57519;51.494;-2.626;2023-03-23T14:14:33;16.65;;;6.90;;
70153;SDS011;57519;51.494;-2.626;2023-03-23T14:17:24;20.58;;;11.35;;
70153;SDS011;57519;51.494;-2.626;2023-03-23T14:19:52;24.58;;;14.85;;
70153;SDS011;57519;51.494;-2.626;2023-03-23T14:22:24;36.83;;;17.10;;
70153;SDS011;57519;51.494;-2.626;2023-03-23T14:25:01;28.93;;;15.70;;
70153;SDS011;57519;51.494;-2.626;2023-03-23T14:27:35;25.25;;;13.82;;
70153;SDS011;57519;51.494;-2.626;2023-03-23T14:30:05;20.02;;;15.63;;
70153;SDS011;57519;51.494;-2.626;2023-03-23T14:32:33;33.30;;;22.08;;
70153;SDS011;57519;51.494;-2.626;2023-03-23T14:35:03;22.20;;;11.48;;
70153;SDS011;57519;51.494;-2.626;2023-03-23T14:37:32;18.07;;;14.77;;
70153;SDS011;57519;51.494;-2.626;2023-03-23T14:40:00;28.42;;;12.80;;
70153;SDS011;57519;51.494;-2.626;2023-03-23T14:42:29;30.23;;;10.23;;
70153;SDS011;57519;51.494;-2.626;2023-03-23T14:44:56;33.60;;;22.90;;
70153;SDS011;57519;51.494;-2.626;2023-03-23T14:47:25;23.40;;;20.98;;
70153;SDS011;57519;51.494;-2.626;2023-03-23T14:49:53;27.53;;;20.00;;
70153;SDS011;57519;51.494;-2.626;2023-03-23T14:52:21;39.17;;;22.83;;
70153;SDS011;57519;51.494;-2.626;2023-03-23T14:54:49;32.40;;;28.25;;
70153;SDS011;57519;51.494;-2.626;2023-03-23T14:57:16;27.97;;;21.80;;
70153;SDS011;57519;51.494;-2.626;2023-03-23T14:59:42;28.83;;;23.20;;
70153;SDS011;57519;51.494;-2.626;2023-03-23T15:05:01;24.00;;;19.45;;
70153;SDS011;57519;51.494;-2.626;2023-03-23T15:07:31;33.03;;;23.17;;
70153;SDS011;57519;51.494;-2.626;2023-03-23T15:10:00;25.30;;;22.50;;
70153;SDS011;57519;51.494;-2.626;2023-03-23T15:12:27;20.60;;;18.08;;
70153;SDS011;57519;51.494;-2.626;2023-03-23T15:14:56;25.95;;;19.77;;
70153;SDS011;57519;51.494;-2.626;2023-03-23T15:17:26;37.55;;;33.60;;
70153;SDS011;57519;51.494;-2.626;2023-03-23T15:19:57;32.97;;;15.57;;
70153;SDS011;57519;51.494;-2.626;2023-03-23T15:22:29;18.90;;;12.75;;
70153;SDS011;57519;51.494;-2.626;2023-03-23T15:27:41;53.70;;;28.85;;
70153;SDS011;57519;51.494;-2.626;2023-03-23T15:33:02;46.73;;;29.67;;
70153;SDS011;57519;51.494;-2.626;2023-03-23T15:35:38;45.15;;;32.30;;
70153;SDS011;57519;51.494;-2.626;2023-03-23T15:38:14;34.25;;;17.40;;
70153;SDS011;57519;51.494;-2.626;2023-03-23T15:40:42;21.25;;;11.32;;
70153;SDS011;57519;51.494;-2.626;2023-03-23T15:43:26;21.17;;;12.15;;
70153;SDS011;57519;51.494;-2.626;2023-03-23T15:51:24;20.00;;;8.67;;
70153;SDS011;57519;51.494;-2.626;2023-03-23T15:53:53;21.30;;;13.10;;
70153;SDS011;57519;51.494;-2.626;2023-03-23T15:56:20;25.70;;;8.73;;
70153;SDS011;57519;51.494;-2.626;2023-03-23T15:58:47;19.98;;;7.63;;
70153;SDS011;57519;51.494;-2.626;2023-03-23T16:01:16;16.80;;;7.90;;
70153;SDS011;57519;51.494;-2.626;2023-03-23T16:06:32;18.63;;;6.47;;
70153;SDS011;57519;51.494;-2.626;2023-03-23T16:08:58;19.02;;;6.57;;
70153;SDS011;57519;51.494;-2.626;2023-03-23T16:11:26;19.67;;;6.83;;
70153;SDS011;57519;51.494;-2.626;2023-03-23T16:13:53;20.38;;;6.82;;
70153;SDS011;57519;51.494;-2.626;2023-03-23T16:16:30;16.55;;;7.00;;
70153;SDS011;57519;51.494;-2.626;2023-03-23T16:18:58;22.25;;;7.88;;
70153;SDS011;57519;51.494;-2.626;2023-03-23T16:21:24;23.57;;;7.07;;
70153;SDS011;57519;51.494;-2.626;2023-03-23T16:23:50;19.52;;;6.35;;
70153;SDS011;57519;51.494;-2.626;2023-03-23T16:26:16;14.53;;;6.33;;
70153;SDS011;57519;51.494;-2.626;2023-03-23T16:28:42;20.63;;;8.60;;